Time;durP1;ratioP1;P1;durP2;ratioP2;P2;SDS_P1;SDS_P2;PMS_P1;PMS_P2;Temp;Humidity;BMP_temperature;BMP_pressure;BME280_temperature;BME280_humidity;BME280_pressure;Samples;Min_cycle;Max_cycle;Signal;HPM_P1;HPM_P2
2022/02/09 00:06:37;;;;;;;;;40.25;37.00;;;;;10.38;69.27;102251.16;5057039;28;45682;-77
2022/02/09 00:09:04;;;;;;;;;41.50;33.00;;;;;10.36;69.25;102253.84;5057022;28;46166;-77
2022/02/09 00:11:37;;;;;;;;;41.75;36.50;;;;;10.30;69.36;102238.41;5056784;28;45891;-78
2022/02/09 00:14:12;;;;;;;;;37.00;31.50;;;;;10.27;69.50;102235.03;5057109;28;45688;-75
2022/02/09 00:19:26;;;;;;;;;36.50;33.00;;;;;10.28;69.31;102236.75;5056159;28;45609;-74
2022/02/09 00:22:11;;;;;;;;;35.75;33.00;;;;;10.18;69.45;102222.38;5056616;28;46049;-75
2022/02/09 00:40:25;;;;;;;;;32.00;30.00;;;;;10.10;69.58;102220.03;5056216;28;46129;-74
2022/02/09 01:41:20;;;;;;;;;27.00;23.00;;;;;9.68;69.95;102192.16;5055513;28;45685;-73
2022/02/09 01:55:25;;;;;;;;;24.50;22.00;;;;;9.64;69.65;102187.97;5055149;28;45583;-73
2022/02/09 01:56:41;;;;;;;;;22.75;19.25;;;;;9.61;69.88;102197.69;5055102;28;45828;-72
2022/02/09 01:59:07;;;;;;;;;24.00;19.75;;;;;9.53;69.74;102187.56;5055160;28;45651;-73
2022/02/09 02:01:34;;;;;;;;;25.50;23.25;;;;;9.50;69.52;102177.22;5037406;28;45773;-73
2022/02/09 02:07:26;;;;;;;;;22.00;20.75;;;;;9.47;69.87;102192.19;5054721;28;46178;-74
2022/02/09 02:09:53;;;;;;;;;32.25;25.00;;;;;9.48;69.75;102202.59;5054851;28;45530;-73
2022/02/09 02:12:21;;;;;;;;;23.50;21.25;;;;;9.45;69.72;102191.38;5036926;28;45947;-74
2022/02/09 02:14:56;;;;;;;;;26.50;25.75;;;;;9.40;69.81;102182.88;5054814;28;47640;-74
2022/02/09 02:17:36;;;;;;;;;31.75;23.50;;;;;9.43;69.99;102193.25;5055102;28;46359;-74
2022/02/09 02:20:13;;;;;;;;;26.00;21.50;;;;;9.37;69.73;102169.94;5056545;28;45714;-74
2022/02/09 02:23:05;;;;;;;;;21.00;19.50;;;;;9.36;69.72;102161.25;5054910;28;45442;-75
2022/02/09 02:25:45;;;;;;;;;25.50;23.00;;;;;9.38;69.96;102176.88;5056287;28;45677;-75
2022/02/09 02:28:33;;;;;;;;;27.00;23.50;;;;;9.36;69.91;102174.31;5036802;28;46652;-74
2022/02/09 03:13:12;;;;;;;;;25.25;21.50;;;;;9.17;69.95;102115.84;5015266;28;46220;-74
2022/02/09 03:15:46;;;;;;;;;23.50;20.75;;;;;9.16;70.04;102112.38;5015627;28;45694;-74
2022/02/09 03:23:59;;;;;;;;;24.50;21.25;;;;;9.10;70.15;102088.25;5012623;28;46381;-73
2022/02/09 03:27:18;;;;;;;;;25.25;22.00;;;;;9.13;69.76;102091.56;5057519;28;45474;-75
2022/02/09 03:54:28;;;;;;;;;24.50;22.50;;;;;8.95;69.67;102055.75;4977044;28;45804;-77
2022/02/09 03:59:19;;;;;;;;;25.50;20.00;;;;;8.93;69.81;102057.56;4977345;28;45553;-76
2022/02/09 04:01:45;;;;;;;;;28.00;24.25;;;;;8.96;69.75;102057.44;4975861;28;45587;-74
2022/02/09 04:07:32;;;;;;;;;23.00;21.50;;;;;8.95;69.65;102057.53;4980748;28;46328;-75
2022/02/09 04:10:00;;;;;;;;;28.50;22.25;;;;;8.93;69.62;102049.72;5056835;28;45711;-73
2022/02/09 04:12:39;;;;;;;;;29.00;25.50;;;;;8.90;69.49;102046.41;5056529;28;45510;-74
2022/02/09 04:17:59;;;;;;;;;28.50;24.00;;;;;8.85;69.84;102047.41;5055480;28;45656;-76
2022/02/09 04:51:48;;;;;;;;;24.75;23.25;;;;;8.66;69.26;102041.25;5056186;28;46104;-76
2022/02/09 04:54:26;;;;;;;;;24.00;22.50;;;;;8.68;69.67;102041.19;5056466;28;45896;-77
2022/02/09 04:59:40;;;;;;;;;25.00;23.75;;;;;8.64;69.25;102045.66;5056092;28;46351;-75
2022/02/09 05:23:08;;;;;;;;;23.00;20.00;;;;;8.58;69.18;102060.75;5055515;28;45834;-75
2022/02/09 05:25:43;;;;;;;;;23.75;20.25;;;;;8.54;69.13;102057.41;5057002;28;45631;-74
2022/02/09 05:28:13;;;;;;;;;28.50;23.75;;;;;8.54;69.11;102065.22;5058690;28;45694;-78
2022/02/09 05:30:40;;;;;;;;;31.00;26.25;;;;;8.49;69.26;102055.88;5058545;28;45740;-75
2022/02/09 05:33:05;;;;;;;;;27.00;22.25;;;;;8.46;69.30;102056.88;5058594;28;46105;-73
2022/02/09 05:35:31;;;;;;;;;26.25;23.50;;;;;8.51;69.24;102061.91;5055849;28;45698;-77
2022/02/09 05:37:57;;;;;;;;;24.00;23.50;;;;;8.47;69.10;102065.56;5021235;28;45605;-77
2022/02/09 05:40:25;;;;;;;;;23.00;20.50;;;;;8.48;69.03;102062.00;5055388;28;46612;-76
2022/02/09 05:42:51;;;;;;;;;26.75;21.75;;;;;8.49;69.32;102071.53;5055868;28;46004;-77
2022/02/09 05:45:18;;;;;;;;;23.75;21.25;;;;;8.50;68.91;102062.81;5055387;28;45666;-76
2022/02/09 05:53:24;;;;;;;;;28.25;24.75;;;;;8.39;69.04;102040.56;5012926;28;46436;-74
2022/02/09 05:55:54;;;;;;;;;26.75;25.25;;;;;8.45;69.08;102049.09;4996281;28;45856;-76
2022/02/09 06:00:57;;;;;;;;;29.25;25.25;;;;;8.28;69.12;102028.81;5013105;28;45970;-77
2022/02/09 06:03:23;;;;;;;;;25.00;22.75;;;;;8.42;69.03;102060.50;5013116;28;45999;-77
2022/02/09 06:05:48;;;;;;;;;27.25;25.00;;;;;8.43;69.04;102064.81;5013069;28;45627;-77
2022/02/09 06:08:14;;;;;;;;;44.00;39.50;;;;;8.37;69.07;102058.06;5013167;28;45799;-77
2022/02/09 06:10:44;;;;;;;;;62.00;49.25;;;;;8.33;69.05;102051.25;4996148;28;45693;-74
2022/02/09 06:16:05;;;;;;;;;30.00;26.75;;;;;8.41;69.07;102069.25;5012494;28;45927;-77
2022/02/09 06:21:18;;;;;;;;;29.50;26.25;;;;;8.36;68.98;102065.97;5013064;28;45991;-76
2022/02/09 06:23:44;;;;;;;;;24.00;20.00;;;;;8.38;69.24;102071.97;5012748;28;46178;-77
2022/02/09 06:26:10;;;;;;;;;31.25;28.50;;;;;8.31;69.25;102063.50;5013857;28;45777;-77
2022/02/09 06:28:35;;;;;;;;;28.50;24.50;;;;;8.31;69.23;102055.69;5028642;28;45729;-77
2022/02/09 06:31:01;;;;;;;;;30.75;27.00;;;;;8.35;69.06;102067.72;5038770;28;46314;-76
2022/02/09 06:33:26;;;;;;;;;28.75;26.00;;;;;8.34;69.04;102070.38;5057102;28;46615;-75
2022/02/09 06:35:57;;;;;;;;;31.00;27.00;;;;;8.31;69.12;102063.50;5055823;28;45799;-76
2022/02/09 06:38:23;;;;;;;;;24.25;22.50;;;;;8.26;69.05;102052.34;5056987;28;45851;-76
2022/02/09 06:40:53;;;;;;;;;24.25;23.00;;;;;8.31;68.96;102060.91;5055182;28;47343;-77
2022/02/09 06:43:19;;;;;;;;;26.00;25.25;;;;;8.31;69.35;102067.91;5055124;28;47034;-77
2022/02/09 06:45:44;;;;;;;;;23.25;19.75;;;;;8.29;69.13;102060.09;5036514;28;45626;-74
2022/02/09 06:48:14;;;;;;;;;24.75;23.25;;;;;8.24;69.27;102054.19;5054526;28;45452;-73
2022/02/09 06:50:45;;;;;;;;;23.50;22.00;;;;;8.32;69.15;102069.59;5054423;28;46523;-73
2022/02/09 06:53:47;;;;;;;;;32.00;27.25;;;;;8.32;69.24;102065.22;5054346;28;46077;-73
2022/02/09 06:56:06;;;;;;;;;26.25;20.50;;;;;8.29;69.18;102056.63;5038425;28;46033;-76
2022/02/09 07:01:04;;;;;;;;;25.00;22.00;;;;;8.30;69.22;102067.06;5055570;28;45756;-75
2022/02/09 07:03:30;;;;;;;;;30.25;24.00;;;;;8.31;69.07;102060.91;5055594;28;46256;-76
2022/02/09 07:05:55;;;;;;;;;30.25;24.25;;;;;8.31;69.16;102062.69;5055085;28;45530;-74
2022/02/09 07:08:21;;;;;;;;;28.75;24.00;;;;;8.32;69.16;102070.44;5054408;28;45516;-74
2022/02/09 07:10:47;;;;;;;;;26.50;24.00;;;;;8.33;69.21;102076.50;5053715;28;46324;-72
2022/02/09 07:13:13;;;;;;;;;28.25;26.50;;;;;8.33;69.17;102074.75;5054325;28;47120;-75
2022/02/09 07:15:47;;;;;;;;;23.75;20.50;;;;;8.34;69.19;102080.84;5054075;28;45599;-73
2022/02/09 07:18:13;;;;;;;;;45.00;39.25;;;;;8.33;69.15;102081.72;5053692;28;45815;-72
2022/02/09 07:23:34;;;;;;;;;29.75;26.00;;;;;8.34;69.02;102080.84;5053483;28;46183;-76
2022/02/09 07:26:12;;;;;;;;;27.25;24.50;;;;;8.35;69.14;102091.22;5054096;28;45782;-74
2022/02/09 07:28:39;;;;;;;;;30.75;26.75;;;;;8.34;69.20;102083.44;5035732;28;45707;-75
2022/02/09 07:31:07;;;;;;;;;36.00;31.00;;;;;8.33;69.00;102079.97;5053990;28;46255;-76
2022/02/09 07:33:34;;;;;;;;;27.50;25.25;;;;;8.35;69.17;102074.72;5054106;28;46173;-74
2022/02/09 07:35:59;;;;;;;;;29.25;27.75;;;;;8.35;69.22;102082.53;5053505;28;45780;-74
2022/02/09 07:38:25;;;;;;;;;28.75;24.00;;;;;8.32;69.02;102077.41;5035672;28;45554;-74
2022/02/09 07:40:57;;;;;;;;;32.75;25.25;;;;;8.34;69.01;102083.44;5053357;28;47243;-74
2022/02/09 07:43:35;;;;;;;;;28.25;26.75;;;;;8.33;68.90;102073.91;5053892;28;46593;-72
2022/02/09 07:54:00;;;;;;;;;34.25;28.75;;;;;8.36;69.00;102072.03;5056785;28;46106;-74
2022/02/09 07:56:44;;;;;;;;;32.50;28.75;;;;;8.32;68.73;102067.81;5056883;28;45545;-77
2022/02/09 07:59:12;;;;;;;;;28.25;26.50;;;;;8.37;68.86;102071.09;5057016;28;45641;-76
2022/02/09 08:01:38;;;;;;;;;30.00;27.75;;;;;8.39;68.94;102066.69;5056913;28;46478;-76
2022/02/09 08:04:04;;;;;;;;;25.25;20.50;;;;;8.41;68.89;102071.88;5056828;28;46696;-74
2022/02/09 08:06:30;;;;;;;;;28.50;26.25;;;;;8.42;68.81;102061.34;5056774;28;45913;-74
2022/02/09 08:09:05;;;;;;;;;24.75;23.00;;;;;8.37;68.72;102049.38;5056819;28;45657;-76
2022/02/09 08:11:41;;;;;;;;;26.00;24.00;;;;;8.39;68.67;102055.41;5056760;28;47228;-73
2022/02/09 08:32:41;;;;;;;;;32.00;28.50;;;;;8.47;68.76;102052.50;5058298;28;46592;-76
2022/02/09 08:35:08;;;;;;;;;32.00;26.75;;;;;8.41;68.52;102041.38;5040192;28;47627;-76
2022/02/09 08:37:33;;;;;;;;;25.50;24.25;;;;;8.45;68.43;102051.69;5056874;28;45496;-77
2022/02/09 08:39:59;;;;;;;;;34.00;29.00;;;;;8.45;68.63;102044.72;5056391;28;45531;-74
2022/02/09 08:42:24;;;;;;;;;26.50;26.00;;;;;8.50;68.63;102049.75;5055598;28;46431;-78
2022/02/09 08:44:51;;;;;;;;;32.75;32.25;;;;;8.48;68.44;102033.28;5056374;28;46119;-75
2022/02/09 08:47:19;;;;;;;;;38.50;30.50;;;;;8.54;68.18;102049.56;5056089;28;45471;-74
2022/02/09 08:49:44;;;;;;;;;35.25;28.75;;;;;8.54;68.33;102046.09;5056248;28;45796;-74
2022/02/09 08:52:09;;;;;;;;;39.50;36.25;;;;;8.57;68.37;102046.84;5037726;28;48578;-76
2022/02/09 08:54:35;;;;;;;;;35.50;32.75;;;;;8.51;68.46;102028.81;5056273;28;46042;-73
2022/02/09 08:57:08;;;;;;;;;40.00;33.75;;;;;8.53;68.32;102028.75;5056039;28;45592;-77
2022/02/09 08:59:33;;;;;;;;;36.50;33.50;;;;;8.62;68.25;102037.06;5056244;28;45549;-74
2022/02/09 09:02:05;;;;;;;;;38.25;34.25;;;;;8.58;68.42;102025.03;5055231;28;46411;-74
2022/02/09 09:04:42;;;;;;;;;36.75;33.00;;;;;8.60;68.31;102025.81;5055944;28;46117;-75
2022/02/09 09:07:16;;;;;;;;;34.25;31.00;;;;;8.65;68.40;102034.31;5055723;28;45749;-74
2022/02/09 10:05:42;;;;;;;;;28.00;27.75;;;;;9.10;67.00;101979.31;5056154;28;45603;-80
2022/02/09 10:34:13;;;;;;;;;31.75;29.00;;;;;9.59;66.13;102003.31;5054365;28;45765;-76
2022/02/09 10:40:08;;;;;;;;;34.75;31.50;;;;;9.66;66.24;101989.03;5054383;28;45556;-78
2022/02/09 10:42:47;;;;;;;;;34.75;32.25;;;;;9.70;66.17;101993.22;5069927;28;47514;-77
2022/02/09 10:45:36;;;;;;;;;33.25;31.00;;;;;9.74;66.31;101984.28;5054053;28;47413;-77
2022/02/09 10:48:04;;;;;;;;;38.25;33.25;;;;;9.77;66.21;101994.59;5054405;28;45809;-77
2022/02/09 10:50:33;;;;;;;;;35.25;33.75;;;;;9.81;66.20;101980.50;5054204;28;45491;-75
2022/02/09 10:56:20;;;;;;;;;48.75;37.25;;;;;9.89;65.74;101974.88;5053857;28;45750;-76
2022/02/09 10:58:45;;;;;;;;;34.50;33.00;;;;;9.92;65.85;101969.53;5054458;28;45507;-76
2022/02/09 11:01:13;;;;;;;;;36.00;32.00;;;;;9.95;66.05;101967.59;5053938;28;45634;-78
2022/02/09 11:03:40;;;;;;;;;34.75;32.50;;;;;9.91;65.99;101947.72;5054028;28;45829;-77
2022/02/09 11:06:06;;;;;;;;;32.75;29.75;;;;;10.02;65.56;101957.69;5052494;28;47152;-77
2022/02/09 11:11:53;;;;;;;;;34.00;28.25;;;;;10.14;65.72;101961.50;5053862;28;45555;-77
2022/02/09 11:14:23;;;;;;;;;36.75;33.50;;;;;10.15;65.48;101953.56;5053710;28;46644;-77
2022/02/09 11:16:58;;;;;;;;;32.25;29.75;;;;;10.22;65.24;101952.38;5054599;28;45987;-78
2022/02/09 11:19:35;;;;;;;;;28.00;24.25;;;;;10.18;65.39;101939.53;5054466;28;45586;-78
2022/02/09 11:22:22;;;;;;;;;23.00;19.50;;;;;10.31;65.05;101951.13;5054963;28;45729;-78
2022/02/09 11:25:08;;;;;;;;;25.50;22.75;;;;;10.36;64.84;101943.88;5060504;28;46420;-77
2022/02/09 11:27:37;;;;;;;;;23.50;21.00;;;;;10.37;64.60;101943.78;5066961;28;45534;-76
2022/02/09 11:30:24;;;;;;;;;27.75;22.50;;;;;10.44;64.61;101936.47;5049461;28;45645;-79
2022/02/09 11:33:29;;;;;;;;;26.00;23.75;;;;;10.43;64.53;101926.91;5064421;28;45807;-77
2022/02/09 11:38:58;;;;;;;;;24.50;22.25;;;;;10.53;64.11;101920.28;5063629;28;46017;-75
2022/02/09 11:41:35;;;;;;;;;24.00;23.00;;;;;10.60;64.11;101923.47;5064397;28;45602;-78
2022/02/09 11:44:13;;;;;;;;;25.50;24.00;;;;;10.62;64.17;101921.63;5067141;28;45716;-76
2022/02/09 12:01:24;;;;;;;;;24.75;23.50;;;;;10.82;63.34;101908.34;5058121;28;46066;-77
2022/02/09 12:13:03;;;;;;;;;33.00;31.25;;;;;11.00;62.93;101906.56;5056758;28;45730;-77
2022/02/09 12:16:09;;;;;;;;;30.75;26.00;;;;;11.04;62.94;101901.06;5056538;28;45664;-75
2022/02/09 12:18:39;;;;;;;;;29.75;27.25;;;;;11.04;63.08;101885.34;5056694;28;45822;-78
2022/02/09 12:21:16;;;;;;;;;30.25;27.50;;;;;11.09;63.00;101885.94;5056575;28;46651;-78
2022/02/09 12:23:47;;;;;;;;;36.50;33.00;;;;;11.15;62.87;101884.78;5056961;28;46208;-77
2022/02/09 12:26:13;;;;;;;;;31.50;29.00;;;;;11.18;62.78;101881.97;5056502;28;46298;-79
2022/02/09 12:28:42;;;;;;;;;30.50;27.50;;;;;11.22;62.47;101876.50;5056684;28;45600;-78
2022/02/09 12:31:16;;;;;;;;;30.75;27.50;;;;;11.29;62.59;101877.84;5056738;28;46296;-79
2022/02/09 12:33:47;;;;;;;;;32.75;30.75;;;;;11.27;62.47;101863.13;5056500;28;46068;-78
2022/02/09 12:36:17;;;;;;;;;27.25;26.50;;;;;11.39;62.69;101869.50;5056514;28;45507;-79
2022/02/09 12:38:45;;;;;;;;;26.50;24.50;;;;;11.44;62.48;101873.56;5055657;28;45726;-78
2022/02/09 12:41:17;;;;;;;;;36.00;31.75;;;;;11.50;62.62;101870.59;5055988;28;45745;-79
2022/02/09 12:44:03;;;;;;;;;28.25;25.50;;;;;11.46;62.46;101853.31;5056683;28;46155;-77
2022/02/09 12:46:33;;;;;;;;;30.25;27.00;;;;;11.59;62.20;101853.50;5056550;28;45767;-78
2022/02/09 12:49:11;;;;;;;;;31.00;27.00;;;;;11.61;62.04;101851.63;5056192;28;45633;-78
2022/02/09 12:51:37;;;;;;;;;26.00;25.50;;;;;11.65;62.01;101853.19;5056316;28;45784;-79
2022/02/09 12:54:04;;;;;;;;;31.00;26.25;;;;;11.71;62.18;101852.84;5055995;28;46080;-78
2022/02/09 12:56:36;;;;;;;;;30.75;26.50;;;;;11.76;62.22;101849.06;5056271;28;45805;-78
2022/02/09 12:59:06;;;;;;;;;29.00;24.00;;;;;11.82;61.82;101847.00;5056114;28;45640;-79
2022/02/09 13:01:44;;;;;;;;;29.00;27.25;;;;;11.86;61.65;101843.28;5055863;28;46413;-79
2022/02/09 13:04:25;;;;;;;;;27.25;25.25;;;;;11.90;61.58;101835.13;5071329;28;48328;-79
2022/02/09 13:06:50;;;;;;;;;30.75;29.00;;;;;11.95;61.47;101833.09;5056028;28;45801;-78
2022/02/09 13:09:17;;;;;;;;;33.25;28.25;;;;;11.99;61.48;101825.88;5056090;28;45649;-79
2022/02/09 13:11:42;;;;;;;;;30.25;27.50;;;;;12.03;61.57;101830.88;5055878;28;46679;-77
2022/02/09 13:14:12;;;;;;;;;27.25;23.75;;;;;12.08;61.56;101835.88;5055837;28;45670;-78
2022/02/09 13:16:51;;;;;;;;;29.50;26.25;;;;;12.12;61.19;101825.09;5055716;28;45652;-77
2022/02/09 14:57:13;;;;;;;;;20.50;19.00;;;;;13.54;58.36;101737.44;5012174;28;45649;-77
2022/02/09 15:02:13;;;;;;;;;17.75;15.75;;;;;13.59;58.39;101725.66;5031438;28;46100;-77
2022/02/09 15:07:30;;;;;;;;;19.00;16.00;;;;;13.63;58.17;101721.03;5060762;28;45668;-77
2022/02/09 15:13:28;;;;;;;;;20.00;18.00;;;;;13.71;57.98;101710.84;5060280;28;45764;-76
2022/02/09 15:16:05;;;;;;;;;20.75;18.75;;;;;13.73;57.25;101715.03;5060239;28;45583;-77
2022/02/09 15:23:43;;;;;;;;;16.50;14.25;;;;;13.81;57.47;101711.91;5060120;28;45693;-75
2022/02/09 15:26:09;;;;;;;;;18.75;16.75;;;;;13.80;57.54;101697.91;5060035;28;45890;-76
2022/02/09 15:28:36;;;;;;;;;16.75;14.25;;;;;13.86;57.17;101713.28;5060679;28;45930;-76
2022/02/09 15:31:08;;;;;;;;;19.00;15.00;;;;;13.85;57.18;101703.69;5060485;28;45750;-76
2022/02/09 15:33:41;;;;;;;;;16.50;15.75;;;;;13.82;57.19;101697.78;5059960;28;47598;-76
2022/02/09 15:36:10;;;;;;;;;15.00;14.00;;;;;13.93;57.35;101702.34;5060075;28;45559;-77
2022/02/09 15:38:45;;;;;;;;;17.00;15.00;;;;;13.97;57.39;101706.47;5060784;28;45649;-77
2022/02/09 15:41:28;;;;;;;;;18.25;15.25;;;;;13.94;56.63;101694.31;5060297;28;46427;-75
2022/02/09 16:05:45;;;;;;;;;16.50;13.25;;;;;15.41;55.57;101662.69;5060137;28;45881;-76
2022/02/09 16:08:40;;;;;;;;;13.00;10.25;;;;;15.47;55.53;101664.03;5060214;28;45663;-77
2022/02/09 16:45:23;;;;;;;;;15.25;14.50;;;;;16.19;53.59;101652.34;4897450;29;45718;-75
2022/02/09 16:50:26;;;;;;;;;13.25;11.25;;;;;15.95;53.46;101648.94;4897149;29;45988;-76
2022/02/09 17:18:47;;;;;;;;;18.50;15.50;;;;;14.79;54.22;101632.16;4953754;28;45615;-76
2022/02/09 17:20:57;;;;;;;;;16.75;16.00;;;;;14.64;54.52;101632.28;4954268;28;45664;-76
2022/02/09 17:23:22;;;;;;;;;21.25;16.50;;;;;14.55;54.46;101637.38;4953849;28;46170;-76
2022/02/09 17:30:09;;;;;;;;;15.75;14.25;;;;;14.39;54.92;101635.00;4958469;28;45944;-76
2022/02/09 17:33:05;;;;;;;;;19.00;15.50;;;;;14.26;54.73;101632.34;4984919;28;45645;-75
2022/02/09 17:35:22;;;;;;;;;16.00;15.75;;;;;14.25;54.88;101632.47;5034656;28;46087;-78
2022/02/09 17:57:38;;;;;;;;;13.75;12.25;;;;;13.79;55.41;101643.53;4973432;28;46463;-78
2022/02/09 18:00:16;;;;;;;;;17.50;16.50;;;;;13.73;55.84;101648.34;4972555;28;45955;-77
2022/02/09 18:02:44;;;;;;;;;19.75;18.75;;;;;13.67;55.50;101640.88;4974058;28;45753;-78
2022/02/09 18:05:17;;;;;;;;;19.25;18.25;;;;;13.63;55.68;101642.03;4973510;28;46449;-78
2022/02/09 18:07:44;;;;;;;;;16.50;14.25;;;;;13.61;55.57;101650.03;4973291;28;47288;-77
2022/02/09 18:10:20;;;;;;;;;19.25;17.50;;;;;13.58;55.82;101644.13;4973306;28;45803;-77
2022/02/09 18:29:25;;;;;;;;;27.00;25.50;;;;;13.29;56.23;101636.38;4974340;28;46215;-76
2022/02/09 18:34:33;;;;;;;;;24.75;22.50;;;;;13.22;56.55;101648.25;5004292;28;45536;-76
2022/02/09 18:43:25;;;;;;;;;28.00;26.25;;;;;13.08;56.74;101640.38;5054444;28;46188;-77
2022/02/09 19:02:46;;;;;;;;;22.00;21.25;;;;;12.93;56.96;101621.16;4992053;28;46148;-75
2022/02/09 19:16:27;;;;;;;;;35.50;30.50;;;;;12.83;57.65;101603.44;4991447;28;46001;-75
2022/02/09 19:29:57;;;;;;;;;26.50;24.50;;;;;12.75;58.06;101584.69;4978279;28;45520;-77
2022/02/09 19:32:34;;;;;;;;;39.00;35.00;;;;;12.74;58.13;101586.47;4972026;28;46810;-78
2022/02/09 19:59:54;;;;;;;;;27.25;23.00;;;;;12.50;58.59;101586.28;5036502;28;45929;-76
2022/02/09 20:02:20;;;;;;;;;29.00;25.75;;;;;12.37;58.41;101569.56;5036929;28;45687;-77
2022/02/09 20:04:46;;;;;;;;;39.25;35.50;;;;;12.38;58.82;101584.41;5036768;28;45575;-77
2022/02/09 20:07:12;;;;;;;;;31.25;30.50;;;;;12.31;58.75;101574.41;5036703;28;46191;-77
2022/02/09 20:09:37;;;;;;;;;37.00;33.75;;;;;12.27;58.75;101571.09;5036430;28;45510;-77
2022/02/09 20:15:25;;;;;;;;;34.25;32.25;;;;;12.16;59.09;101578.78;5036122;28;45964;-77
2022/02/09 20:17:52;;;;;;;;;40.25;35.00;;;;;12.08;59.41;101560.91;5036257;28;46400;-76
2022/02/09 20:20:24;;;;;;;;;49.00;41.25;;;;;12.07;59.64;101567.09;5035045;28;45920;-74
2022/02/09 20:22:51;;;;;;;;;43.50;37.75;;;;;11.96;59.29;101560.81;5036906;28;45934;-76
2022/02/09 20:25:18;;;;;;;;;35.00;32.50;;;;;11.97;59.58;101565.13;5037428;28;47218;-75
2022/02/09 20:27:44;;;;;;;;;32.75;32.00;;;;;11.94;59.59;101567.94;5037629;28;45600;-76
2022/02/09 20:30:14;;;;;;;;;35.75;33.25;;;;;11.87;59.85;101562.22;5057317;28;45700;-77
2022/02/09 20:32:46;;;;;;;;;42.00;36.50;;;;;11.80;59.93;101557.44;5057399;28;45790;-77
2022/02/09 20:35:14;;;;;;;;;48.25;39.50;;;;;11.80;60.28;101573.19;5056867;28;45667;-75
2022/02/09 20:37:45;;;;;;;;;42.00;36.00;;;;;11.72;60.35;101560.47;5056515;28;46633;-77
2022/02/09 20:40:16;;;;;;;;;33.25;30.50;;;;;11.66;60.72;101571.38;5056750;28;45589;-77
2022/02/09 20:46:06;;;;;;;;;35.25;29.75;;;;;11.49;60.81;101561.88;5055517;28;45554;-74
2022/02/09 20:48:31;;;;;;;;;35.00;31.75;;;;;11.46;60.84;101569.91;5055973;28;46744;-74
2022/02/09 20:50:59;;;;;;;;;39.75;33.25;;;;;11.43;60.93;101564.03;5055730;28;45589;-75
2022/02/09 20:53:25;;;;;;;;;34.00;31.50;;;;;11.38;61.23;101564.28;5055769;28;45598;-74
2022/02/09 20:55:51;;;;;;;;;36.25;33.50;;;;;11.35;61.35;101569.72;5055505;28;46588;-77
2022/02/09 20:58:18;;;;;;;;;41.00;34.50;;;;;11.31;61.61;101576.91;5053982;28;46216;-75
2022/02/09 21:00:57;;;;;;;;;47.75;37.25;;;;;11.26;61.68;101572.88;5056094;28;45945;-75
2022/02/09 21:08:57;;;;;;;;;41.25;36.00;;;;;11.16;62.05;101569.09;5055481;28;45592;-75
2022/02/09 21:14:14;;;;;;;;;36.00;33.00;;;;;11.11;62.40;101563.28;5055756;28;45817;-75
2022/02/09 21:16:58;;;;;;;;;40.25;35.25;;;;;11.02;62.43;101563.78;5055580;28;46482;-76
2022/02/09 21:54:42;;;;;;;;;41.75;33.75;;;;;10.58;63.48;101584.69;4934620;28;45919;-77
2022/02/09 22:49:32;;;;;;;;;43.50;39.25;;;;;9.86;65.38;101527.47;4919620;28;46388;-75
2022/02/09 22:54:45;;;;;;;;;44.00;37.50;;;;;9.89;65.20;101528.16;4946180;28;45679;-75
2022/02/09 22:57:11;;;;;;;;;41.50;37.25;;;;;9.95;65.07;101535.69;4952518;28;47409;-74
2022/02/09 22:59:45;;;;;;;;;43.75;37.75;;;;;9.96;65.40;101526.06;4988701;28;46068;-77
2022/02/09 23:02:22;;;;;;;;;50.00;40.50;;;;;10.04;65.12;101529.13;5069650;28;45839;-75
2022/02/09 23:08:16;;;;;;;;;42.00;37.00;;;;;10.06;65.49;101522.84;5054619;28;46449;-73
2022/02/09 23:10:38;;;;;;;;;39.50;36.75;;;;;10.03;65.34;101517.78;5051460;28;46277;-76
2022/02/09 23:13:14;;;;;;;;;47.75;40.75;;;;;10.11;65.46;101527.84;5039219;28;45865;-76
2022/02/09 23:15:56;;;;;;;;;52.25;41.75;;;;;10.10;65.24;101527.00;5054335;28;45535;-75
2022/02/09 23:24:03;;;;;;;;;47.00;39.00;;;;;10.14;65.52;101538.16;5057277;28;45910;-76
